Time;durP1;ratioP1;P1;durP2;ratioP2;P2;SDS_P1;SDS_P2;PMS_P1;PMS_P2;Temp;Humidity;BMP_temperature;BMP_pressure;BME280_temperature;BME280_humidity;BME280_pressure;Samples;Min_cycle;Max_cycle;Signal;HPM_P1;HPM_P2
2021/05/07 00:02:16;;;;;;;12.05;2.92;;;;;;;;;;4986861;28;20140;-84
2021/05/07 00:04:44;;;;;;;7.38;2.60;;;;;;;;;;4994507;28;20054;-84
2021/05/07 00:07:10;;;;;;;7.97;3.05;;;;;;;;;;4994036;28;20089;-84
2021/05/07 00:09:37;;;;;;;10.18;3.60;;;;;;;;;;4988557;28;20097;-84
2021/05/07 00:12:05;;;;;;;5.38;3.10;;;;;;;;;;4983373;28;20078;-84
2021/05/07 00:14:32;;;;;;;11.00;2.90;;;;;;;;;;4959392;28;20046;-85
2021/05/07 00:17:04;;;;;;;9.63;3.30;;;;;;;;;;4977085;28;20050;-85
2021/05/07 00:19:31;;;;;;;9.73;2.75;;;;;;;;;;4983184;28;20052;-85
2021/05/07 00:21:58;;;;;;;7.65;3.20;;;;;;;;;;4986363;28;20042;-84
2021/05/07 00:24:25;;;;;;;6.28;2.75;;;;;;;;;;4994789;28;20046;-85
2021/05/07 00:26:51;;;;;;;8.07;4.03;;;;;;;;;;4994896;28;20078;-85
2021/05/07 00:29:18;;;;;;;21.90;3.70;;;;;;;;;;4992970;28;20038;-84
2021/05/07 00:31:45;;;;;;;14.50;3.17;;;;;;;;;;4985798;28;20447;-84
2021/05/07 00:34:11;;;;;;;7.15;3.17;;;;;;;;;;4993080;28;20084;-84
2021/05/07 00:36:38;;;;;;;9.30;3.30;;;;;;;;;;4994542;28;20084;-85
2021/05/07 00:39:05;;;;;;;11.13;3.38;;;;;;;;;;4993694;28;20050;-85
2021/05/07 00:41:31;;;;;;;8.02;3.60;;;;;;;;;;4994119;28;20145;-84
2021/05/07 00:43:59;;;;;;;12.90;3.22;;;;;;;;;;4992942;28;20058;-84
2021/05/07 00:46:26;;;;;;;14.30;3.60;;;;;;;;;;4993860;28;20078;-84
2021/05/07 00:48:52;;;;;;;12.13;3.20;;;;;;;;;;4993507;28;20058;-84
2021/05/07 00:51:25;;;;;;;12.90;3.45;;;;;;;;;;4965789;28;20050;-84
2021/05/07 00:53:52;;;;;;;10.23;3.35;;;;;;;;;;4974569;28;20161;-84
2021/05/07 00:56:20;;;;;;;19.35;3.67;;;;;;;;;;4973549;28;20120;-84
2021/05/07 00:58:47;;;;;;;7.60;3.20;;;;;;;;;;4981996;28;20050;-84
2021/05/07 01:01:14;;;;;;;10.30;2.80;;;;;;;;;;4993163;28;20093;-84
2021/05/07 01:03:40;;;;;;;6.53;2.65;;;;;;;;;;4994187;28;20046;-84
2021/05/07 01:06:07;;;;;;;9.07;3.30;;;;;;;;;;4988045;28;20081;-84
2021/05/07 01:08:36;;;;;;;11.95;2.90;;;;;;;;;;4985562;28;20587;-85
2021/05/07 01:11:03;;;;;;;8.90;3.42;;;;;;;;;;4956769;28;20050;-84
2021/05/07 01:13:30;;;;;;;6.97;2.97;;;;;;;;;;4982508;28;20098;-84
2021/05/07 01:15:57;;;;;;;10.23;3.03;;;;;;;;;;4990093;28;20081;-84
2021/05/07 01:18:23;;;;;;;8.07;3.00;;;;;;;;;;4993311;28;20085;-84
2021/05/07 01:20:50;;;;;;;19.80;3.55;;;;;;;;;;4995446;28;20050;-84
2021/05/07 01:23:17;;;;;;;7.85;3.08;;;;;;;;;;4993003;28;20085;-85
2021/05/07 01:25:45;;;;;;;7.22;3.50;;;;;;;;;;4993667;28;20054;-84
2021/05/07 01:28:13;;;;;;;8.45;2.97;;;;;;;;;;4988481;28;20089;-85
2021/05/07 01:30:41;;;;;;;10.30;3.10;;;;;;;;;;4981857;28;20073;-84
2021/05/07 01:33:13;;;;;;;10.73;3.78;;;;;;;;;;4956865;28;20589;-84
2021/05/07 01:35:40;;;;;;;8.35;3.20;;;;;;;;;;4956270;28;20055;-84
2021/05/07 01:38:17;;;;;;;7.35;3.10;;;;;;;;;;4973825;28;20050;-84
2021/05/07 01:40:48;;;;;;;16.55;3.40;;;;;;;;;;4955553;28;20062;-84
2021/05/07 01:43:16;;;;;;;8.18;3.53;;;;;;;;;;4974123;28;20146;-84
2021/05/07 01:45:43;;;;;;;13.23;3.35;;;;;;;;;;4956377;28;20098;-84
2021/05/07 01:48:11;;;;;;;9.43;3.50;;;;;;;;;;4969103;28;20042;-84
2021/05/07 01:50:40;;;;;;;7.38;3.47;;;;;;;;;;4985523;28;20046;-84
2021/05/07 01:53:07;;;;;;;10.52;3.03;;;;;;;;;;4983555;28;20149;-84
2021/05/07 01:55:35;;;;;;;13.20;3.08;;;;;;;;;;4993010;28;20058;-84
2021/05/07 01:58:28;;;;;;;8.77;3.53;;;;;;;;;;4990347;28;20105;-84
2021/05/07 02:00:55;;;;;;;11.52;4.35;;;;;;;;;;4980963;28;20051;-84
2021/05/07 02:03:22;;;;;;;10.25;3.65;;;;;;;;;;4980224;28;20102;-84
2021/05/07 02:05:48;;;;;;;6.40;2.80;;;;;;;;;;4985597;28;20559;-84
2021/05/07 02:08:15;;;;;;;6.80;2.72;;;;;;;;;;4991968;28;20101;-84
2021/05/07 02:10:42;;;;;;;6.70;2.60;;;;;;;;;;4980096;28;20487;-84
2021/05/07 02:13:11;;;;;;;4.28;2.72;;;;;;;;;;4983123;28;20054;-84
2021/05/07 02:15:39;;;;;;;5.55;2.70;;;;;;;;;;4992401;28;20526;-84
2021/05/07 02:18:07;;;;;;;9.98;2.65;;;;;;;;;;4991402;28;20050;-84
2021/05/07 02:20:40;;;;;;;9.70;3.08;;;;;;;;;;4986288;28;20082;-85
2021/05/07 02:23:08;;;;;;;6.35;3.33;;;;;;;;;;4974816;28;20539;-84
2021/05/07 02:25:35;;;;;;;10.45;3.65;;;;;;;;;;4972472;28;20082;-84
2021/05/07 02:28:02;;;;;;;6.18;3.00;;;;;;;;;;4972315;28;20646;-84
2021/05/07 02:30:29;;;;;;;8.63;3.13;;;;;;;;;;4962107;28;20047;-84
2021/05/07 02:32:56;;;;;;;11.43;2.90;;;;;;;;;;4979517;28;20083;-84
2021/05/07 02:35:24;;;;;;;9.52;2.90;;;;;;;;;;4990621;28;20077;-85
2021/05/07 02:37:50;;;;;;;8.07;3.58;;;;;;;;;;4989430;28;20073;-84
2021/05/07 02:40:17;;;;;;;11.93;3.95;;;;;;;;;;4983120;28;20046;-84
2021/05/07 02:42:45;;;;;;;7.45;3.80;;;;;;;;;;4992898;28;20141;-85
2021/05/07 02:45:12;;;;;;;14.82;4.25;;;;;;;;;;4992219;28;20101;-85
2021/05/07 02:47:39;;;;;;;10.98;3.67;;;;;;;;;;4975298;28;20054;-85
2021/05/07 02:50:07;;;;;;;9.15;3.15;;;;;;;;;;4991687;28;20160;-85
2021/05/07 02:52:34;;;;;;;7.50;2.90;;;;;;;;;;4985835;28;20112;-84
2021/05/07 02:55:02;;;;;;;10.93;2.72;;;;;;;;;;4996381;28;20484;-85
2021/05/07 02:57:28;;;;;;;9.77;3.15;;;;;;;;;;4991502;28;20861;-85
2021/05/07 03:00:03;;;;;;;5.90;3.20;;;;;;;;;;4970737;28;20137;-85
2021/05/07 03:02:30;;;;;;;10.52;2.80;;;;;;;;;;4995537;28;20490;-84
2021/05/07 03:04:57;;;;;;;9.50;3.40;;;;;;;;;;4994187;28;20494;-84
2021/05/07 03:07:23;;;;;;;7.45;3.17;;;;;;;;;;4984210;28;20093;-83
2021/05/07 03:09:52;;;;;;;7.25;3.65;;;;;;;;;;4981176;28;20125;-84
2021/05/07 03:12:18;;;;;;;15.90;3.33;;;;;;;;;;4981956;28;20089;-84
2021/05/07 03:14:46;;;;;;;9.43;2.70;;;;;;;;;;4995027;28;20082;-83
2021/05/07 03:17:13;;;;;;;9.38;3.28;;;;;;;;;;4995205;28;20050;-84
2021/05/07 03:19:40;;;;;;;14.73;3.90;;;;;;;;;;4992617;28;20049;-84
2021/05/07 03:22:07;;;;;;;9.23;3.38;;;;;;;;;;4985079;28;20054;-84
2021/05/07 03:24:33;;;;;;;14.43;3.95;;;;;;;;;;4995752;28;20089;-84
2021/05/07 03:27:00;;;;;;;11.75;4.18;;;;;;;;;;4992662;28;20106;-84
2021/05/07 03:29:32;;;;;;;14.10;3.67;;;;;;;;;;4994464;28;20085;-84
2021/05/07 03:31:58;;;;;;;11.25;4.32;;;;;;;;;;4986765;28;20089;-84
2021/05/07 03:34:25;;;;;;;14.05;3.67;;;;;;;;;;4996270;28;20061;-84
2021/05/07 03:36:52;;;;;;;11.43;4.20;;;;;;;;;;4985979;28;20113;-84
2021/05/07 03:39:19;;;;;;;14.60;3.90;;;;;;;;;;4986543;28;20128;-84
2021/05/07 03:41:46;;;;;;;10.65;4.05;;;;;;;;;;4991585;28;20077;-84
2021/05/07 03:44:19;;;;;;;19.65;4.38;;;;;;;;;;4967366;28;20454;-84
2021/05/07 03:46:45;;;;;;;14.55;3.85;;;;;;;;;;4957541;28;20078;-84
2021/05/07 03:49:12;;;;;;;11.68;4.20;;;;;;;;;;4979454;28;20069;-83
2021/05/07 03:51:39;;;;;;;11.48;3.90;;;;;;;;;;4992307;28;20042;-84
2021/05/07 03:54:06;;;;;;;8.43;3.75;;;;;;;;;;4977599;28;20082;-84
2021/05/07 03:56:33;;;;;;;8.77;3.90;;;;;;;;;;4975315;28;20727;-84
2021/05/07 03:59:00;;;;;;;18.02;3.58;;;;;;;;;;4986467;28;20105;-84
2021/05/07 04:01:27;;;;;;;20.63;4.20;;;;;;;;;;4958563;28;20141;-84
2021/05/07 04:03:54;;;;;;;12.80;4.15;;;;;;;;;;4988334;28;20148;-84
2021/05/07 04:06:23;;;;;;;11.43;4.03;;;;;;;;;;4965653;28;20692;-83
2021/05/07 04:09:02;;;;;;;11.50;3.95;;;;;;;;;;4975286;28;20444;-84
2021/05/07 04:11:57;;;;;;;16.60;4.38;;;;;;;;;;4972260;28;20042;-84
2021/05/07 04:14:24;;;;;;;14.00;3.80;;;;;;;;;;4995084;28;20382;-84
2021/05/07 04:16:50;;;;;;;13.43;4.18;;;;;;;;;;4994115;28;20046;-84
2021/05/07 04:19:17;;;;;;;12.15;3.88;;;;;;;;;;4984861;28;20415;-84
2021/05/07 04:21:44;;;;;;;15.10;5.18;;;;;;;;;;4989073;28;20488;-84
2021/05/07 04:24:12;;;;;;;15.80;4.20;;;;;;;;;;4994419;28;20583;-84
2021/05/07 04:26:40;;;;;;;16.02;4.55;;;;;;;;;;4993378;28;20533;-84
2021/05/07 04:29:07;;;;;;;11.68;4.47;;;;;;;;;;4993279;28;20042;-83
2021/05/07 04:31:34;;;;;;;14.57;5.00;;;;;;;;;;4993912;28;20054;-85
2021/05/07 04:34:06;;;;;;;11.93;3.88;;;;;;;;;;4993812;28;20054;-84
2021/05/07 04:36:34;;;;;;;11.05;3.58;;;;;;;;;;4994179;28;20101;-84
2021/05/07 04:39:03;;;;;;;14.43;4.40;;;;;;;;;;4994442;28;20096;-87
2021/05/07 04:41:30;;;;;;;16.35;3.90;;;;;;;;;;4994346;28;20054;-84
2021/05/07 04:43:58;;;;;;;11.73;4.10;;;;;;;;;;4976508;28;20161;-88
2021/05/07 04:46:25;;;;;;;12.35;4.40;;;;;;;;;;4973793;28;20086;-85
2021/05/07 04:48:52;;;;;;;15.45;3.83;;;;;;;;;;4981695;28;20042;-87
2021/05/07 04:51:20;;;;;;;10.73;4.00;;;;;;;;;;4985466;28;20046;-87
2021/05/07 04:53:46;;;;;;;12.38;3.70;;;;;;;;;;4994018;28;20088;-87
2021/05/07 04:56:13;;;;;;;15.05;3.60;;;;;;;;;;4992289;28;20059;-87
2021/05/07 04:58:50;;;;;;;15.82;4.63;;;;;;;;;;4991513;28;20090;-87
2021/05/07 05:01:16;;;;;;;16.83;3.55;;;;;;;;;;4977716;28;20134;-87
2021/05/07 05:03:49;;;;;;;7.85;2.80;;;;;;;;;;4993432;28;20077;-87
2021/05/07 05:06:16;;;;;;;16.20;3.88;;;;;;;;;;4987983;28;20083;-87
2021/05/07 05:08:43;;;;;;;17.38;3.47;;;;;;;;;;4991119;28;20135;-87
2021/05/07 05:11:09;;;;;;;10.60;3.97;;;;;;;;;;4956115;28;20550;-87
2021/05/07 05:13:36;;;;;;;11.23;3.83;;;;;;;;;;4991514;28;20132;-86
2021/05/07 05:16:03;;;;;;;13.23;3.97;;;;;;;;;;4975621;28;20105;-83
2021/05/07 05:18:31;;;;;;;10.98;4.05;;;;;;;;;;4975568;28;20061;-83
2021/05/07 05:20:59;;;;;;;14.23;4.57;;;;;;;;;;4980902;28;20563;-82
2021/05/07 05:23:27;;;;;;;10.70;3.83;;;;;;;;;;4963852;28;20134;-83
2021/05/07 05:25:53;;;;;;;8.85;3.92;;;;;;;;;;4991300;28;20564;-80
2021/05/07 05:28:20;;;;;;;17.92;4.55;;;;;;;;;;4990880;28;20081;-80
2021/05/07 05:30:48;;;;;;;17.65;4.82;;;;;;;;;;4994655;28;20074;-85
2021/05/07 05:33:15;;;;;;;16.25;4.53;;;;;;;;;;4992777;28;20074;-86
2021/05/07 05:35:42;;;;;;;16.13;4.47;;;;;;;;;;4983359;28;20669;-82
2021/05/07 05:38:09;;;;;;;10.50;3.88;;;;;;;;;;4975443;28;20479;-82
2021/05/07 05:40:35;;;;;;;16.25;4.60;;;;;;;;;;4965476;28;20494;-82
2021/05/07 05:43:02;;;;;;;12.93;4.05;;;;;;;;;;4993571;28;20070;-82
2021/05/07 05:45:31;;;;;;;12.75;4.25;;;;;;;;;;4992314;28;20070;-85
2021/05/07 05:48:18;;;;;;;24.85;4.38;;;;;;;;;;4988057;28;20104;-86
2021/05/07 05:50:48;;;;;;;16.42;5.38;;;;;;;;;;4985330;28;20475;-85
2021/05/07 05:53:15;;;;;;;12.18;4.20;;;;;;;;;;4991565;28;20491;-85
2021/05/07 05:55:42;;;;;;;15.63;3.97;;;;;;;;;;4974800;28;20047;-86
2021/05/07 05:58:09;;;;;;;12.98;4.25;;;;;;;;;;4983300;28;20129;-85
2021/05/07 06:00:43;;;;;;;13.23;4.05;;;;;;;;;;4977246;28;20077;-84
2021/05/07 06:03:10;;;;;;;13.32;3.92;;;;;;;;;;4990989;28;20054;-85
2021/05/07 06:05:37;;;;;;;13.90;4.35;;;;;;;;;;4982703;28;20046;-84
2021/05/07 06:08:03;;;;;;;12.15;4.55;;;;;;;;;;4991352;28;20050;-84
2021/05/07 06:10:31;;;;;;;11.90;5.43;;;;;;;;;;4992265;28;20073;-83
2021/05/07 06:12:58;;;;;;;22.13;4.80;;;;;;;;;;4985477;28;20408;-84
2021/05/07 06:15:25;;;;;;;22.67;5.65;;;;;;;;;;4979849;28;20146;-84
2021/05/07 06:17:57;;;;;;;17.08;5.63;;;;;;;;;;4973443;28;20074;-85
2021/05/07 06:20:24;;;;;;;19.33;5.40;;;;;;;;;;4973054;28;20476;-84
2021/05/07 06:22:51;;;;;;;18.45;6.07;;;;;;;;;;4987817;28;20054;-84
2021/05/07 06:25:20;;;;;;;23.88;6.70;;;;;;;;;;4990652;28;20077;-85
2021/05/07 06:27:47;;;;;;;17.70;7.45;;;;;;;;;;4981528;28;20484;-85
2021/05/07 06:30:15;;;;;;;19.70;7.35;;;;;;;;;;4981338;28;20484;-83
2021/05/07 06:32:43;;;;;;;16.83;6.43;;;;;;;;;;4962599;28;20046;-85
2021/05/07 06:35:10;;;;;;;21.35;6.30;;;;;;;;;;4984217;28;20111;-85
2021/05/07 06:37:42;;;;;;;14.25;5.72;;;;;;;;;;4990935;28;20046;-84
2021/05/07 06:40:08;;;;;;;21.90;7.90;;;;;;;;;;4986656;28;20456;-83
2021/05/07 06:42:37;;;;;;;17.17;6.22;;;;;;;;;;4974778;28;20051;-85
2021/05/07 06:45:05;;;;;;;14.20;5.63;;;;;;;;;;4973157;28;20057;-84
2021/05/07 06:47:33;;;;;;;23.42;6.60;;;;;;;;;;4973170;28;20133;-85
2021/05/07 06:49:59;;;;;;;22.98;6.38;;;;;;;;;;4971135;28;20050;-82
2021/05/07 06:52:32;;;;;;;20.35;6.40;;;;;;;;;;4989494;28;20133;-85
2021/05/07 06:55:15;;;;;;;;;;;;;;;;;;;;;
2021/05/07 06:57:46;;;;;;;16.35;5.90;;;;;;;;;;4991943;28;20043;-88
2021/05/07 07:00:14;;;;;;;18.67;5.10;;;;;;;;;;4992447;28;20478;-87
2021/05/07 07:02:43;;;;;;;16.63;4.28;;;;;;;;;;4963338;28;20842;-84
2021/05/07 07:05:13;;;;;;;11.07;3.58;;;;;;;;;;4974901;28;20053;-84
2021/05/07 07:07:40;;;;;;;20.73;3.35;;;;;;;;;;4960887;28;20129;-83
2021/05/07 07:10:19;;;;;;;16.73;3.95;;;;;;;;;;4989815;28;20047;-83
2021/05/07 07:12:48;;;;;;;12.98;2.67;;;;;;;;;;4992307;28;20061;-82
2021/05/07 07:15:16;;;;;;;13.27;2.90;;;;;;;;;;4991856;28;20054;-85
2021/05/07 07:17:43;;;;;;;12.43;2.80;;;;;;;;;;4971258;28;20051;-86
2021/05/07 07:20:16;;;;;;;13.55;2.25;;;;;;;;;;4984705;28;20046;-85
2021/05/07 07:22:44;;;;;;;7.00;2.33;;;;;;;;;;4979416;28;20133;-83
2021/05/07 07:25:11;;;;;;;9.07;2.30;;;;;;;;;;4972963;28;20470;-83
2021/05/07 07:27:40;;;;;;;13.27;2.80;;;;;;;;;;4962006;28;20148;-82
2021/05/07 07:30:07;;;;;;;8.18;2.60;;;;;;;;;;4991611;28;20086;-83
2021/05/07 07:32:34;;;;;;;10.60;2.70;;;;;;;;;;4992647;28;20054;-88
2021/05/07 07:35:03;;;;;;;8.38;2.38;;;;;;;;;;4975973;28;20061;-88
2021/05/07 07:37:44;;;;;;;13.07;3.67;;;;;;;;;;4968750;28;20047;-89
2021/05/07 07:40:11;;;;;;;9.82;2.35;;;;;;;;;;4995103;28;20466;-88
2021/05/07 07:42:38;;;;;;;10.65;2.60;;;;;;;;;;4994277;28;20047;-87
2021/05/07 07:45:05;;;;;;;9.25;2.90;;;;;;;;;;4995275;28;20683;-88
2021/05/07 07:47:33;;;;;;;6.13;2.00;;;;;;;;;;4987728;28;20490;-88
2021/05/07 07:50:03;;;;;;;8.18;2.50;;;;;;;;;;4977307;28;20439;-87
2021/05/07 07:52:32;;;;;;;11.32;2.45;;;;;;;;;;4974609;28;20046;-86
2021/05/07 07:55:03;;;;;;;5.68;2.00;;;;;;;;;;4990827;28;20415;-88
2021/05/07 07:57:29;;;;;;;7.13;2.40;;;;;;;;;;4960765;28;20109;-88
2021/05/07 07:59:57;;;;;;;6.88;1.77;;;;;;;;;;4978037;28;20128;-90
2021/05/07 08:02:29;;;;;;;11.13;2.53;;;;;;;;;;4993871;28;20509;-89
2021/05/07 08:04:56;;;;;;;10.52;2.03;;;;;;;;;;4970022;28;20054;-88
2021/05/07 08:07:23;;;;;;;11.52;2.40;;;;;;;;;;4976047;28;20179;-90
2021/05/07 08:09:50;;;;;;;8.07;1.70;;;;;;;;;;4982617;28;20061;-87
2021/05/07 08:12:17;;;;;;;11.20;1.85;;;;;;;;;;4998634;28;20126;-89
2021/05/07 08:14:45;;;;;;;7.10;1.60;;;;;;;;;;4964937;28;20133;-85
2021/05/07 08:17:12;;;;;;;9.15;1.30;;;;;;;;;;4986713;28;20047;-83
2021/05/07 08:19:42;;;;;;;6.55;1.60;;;;;;;;;;4988016;28;20128;-86
2021/05/07 08:22:09;;;;;;;5.47;1.38;;;;;;;;;;4992273;28;20124;-86
2021/05/07 08:24:35;;;;;;;3.60;1.23;;;;;;;;;;4988019;28;20105;-89
2021/05/07 08:27:02;;;;;;;5.68;1.45;;;;;;;;;;4973582;28;20117;-88
2021/05/07 08:29:29;;;;;;;5.07;1.35;;;;;;;;;;4993229;28;20133;-85
2021/05/07 08:31:56;;;;;;;8.10;1.58;;;;;;;;;;4993758;28;20089;-84
2021/05/07 08:34:29;;;;;;;5.13;1.20;;;;;;;;;;4990141;28;20046;-86
2021/05/07 08:36:56;;;;;;;6.68;1.60;;;;;;;;;;4984885;28;20082;-84
2021/05/07 08:39:23;;;;;;;3.88;1.40;;;;;;;;;;4982640;28;20094;-81
2021/05/07 08:41:50;;;;;;;3.05;1.48;;;;;;;;;;4985389;28;20104;-83
2021/05/07 08:44:18;;;;;;;5.43;1.50;;;;;;;;;;4987015;28;20078;-84
2021/05/07 08:46:45;;;;;;;6.18;1.50;;;;;;;;;;4966860;28;20050;-85
2021/05/07 08:49:15;;;;;;;5.50;1.67;;;;;;;;;;4984259;28;20065;-85
2021/05/07 08:51:44;;;;;;;33.58;3.50;;;;;;;;;;4982947;28;20074;-85
2021/05/07 08:54:12;;;;;;;5.10;1.58;;;;;;;;;;4983402;28;20133;-85
2021/05/07 08:56:39;;;;;;;30.20;3.78;;;;;;;;;;4981786;28;20161;-80
2021/05/07 08:59:06;;;;;;;11.82;2.53;;;;;;;;;;4959068;28;20130;-83
2021/05/07 09:01:46;;;;;;;8.70;1.58;;;;;;;;;;4983842;28;20051;-84
2021/05/07 09:04:15;;;;;;;8.50;1.60;;;;;;;;;;4987166;28;20054;-82
2021/05/07 09:06:53;;;;;;;11.63;1.42;;;;;;;;;;4980352;28;20047;-82
2021/05/07 09:09:27;;;;;;;6.90;1.77;;;;;;;;;;4985279;28;20053;-82
2021/05/07 09:12:02;;;;;;;5.03;1.40;;;;;;;;;;4987986;28;20054;-80
2021/05/07 09:14:29;;;;;;;7.28;2.25;;;;;;;;;;4974508;28;20055;-82
2021/05/07 09:17:19;;;;;;;3.47;1.52;;;;;;;;;;4974451;28;20069;-82
2021/05/07 09:19:50;;;;;;;8.23;1.27;;;;;;;;;;4974207;28;20043;-82
2021/05/07 09:22:28;;;;;;;22.70;1.80;;;;;;;;;;4989831;28;20725;-84
2021/05/07 09:25:06;;;;;;;5.75;1.02;;;;;;;;;;4972520;28;20141;-83
2021/05/07 09:27:33;;;;;;;4.22;1.48;;;;;;;;;;4981684;28;20087;-84
2021/05/07 09:30:00;;;;;;;3.90;1.20;;;;;;;;;;4990210;28;20046;-83
2021/05/07 09:32:31;;;;;;;3.10;1.17;;;;;;;;;;4975203;28;20109;-84
2021/05/07 09:35:18;;;;;;;4.10;1.45;;;;;;;;;;4970587;28;20501;-84
2021/05/07 09:37:54;;;;;;;5.50;0.90;;;;;;;;;;4992201;28;20105;-82
2021/05/07 09:40:21;;;;;;;3.80;1.10;;;;;;;;;;4991444;28;20137;-81
2021/05/07 09:42:48;;;;;;;3.00;1.00;;;;;;;;;;4973343;28;20161;-81
2021/05/07 09:45:24;;;;;;;4.57;1.02;;;;;;;;;;4990927;28;20165;-82
2021/05/07 09:47:51;;;;;;;3.50;1.20;;;;;;;;;;4981994;28;20054;-80
2021/05/07 09:50:20;;;;;;;3.13;1.42;;;;;;;;;;4974883;28;20061;-80
2021/05/07 09:52:50;;;;;;;4.55;1.20;;;;;;;;;;4977906;28;20049;-81
2021/05/07 09:55:22;;;;;;;4.72;1.13;;;;;;;;;;4977515;28;20125;-79
2021/05/07 09:57:49;;;;;;;3.95;0.90;;;;;;;;;;4971977;28;20047;-80
2021/05/07 10:00:16;;;;;;;4.18;1.30;;;;;;;;;;4960895;28;20098;-80
2021/05/07 10:02:42;;;;;;;4.30;2.05;;;;;;;;;;4984078;28;20081;-81
2021/05/07 10:05:09;;;;;;;8.45;1.80;;;;;;;;;;4986296;28;20137;-82
2021/05/07 10:07:35;;;;;;;4.60;1.52;;;;;;;;;;4985569;28;20070;-82
2021/05/07 10:10:06;;;;;;;5.95;1.63;;;;;;;;;;4981817;28;20129;-84
2021/05/07 10:12:36;;;;;;;6.05;1.67;;;;;;;;;;4966435;28;20471;-83
2021/05/07 10:15:06;;;;;;;4.95;2.17;;;;;;;;;;4985221;28;20046;-82
2021/05/07 10:17:33;;;;;;;5.30;2.47;;;;;;;;;;4981921;28;20077;-82
2021/05/07 10:20:01;;;;;;;8.70;3.28;;;;;;;;;;4960337;28;20051;-83
2021/05/07 10:22:38;;;;;;;9.23;2.65;;;;;;;;;;4968422;28;20138;-82
2021/05/07 10:25:22;;;;;;;6.32;2.22;;;;;;;;;;4983620;28;20129;-82
2021/05/07 10:27:51;;;;;;;6.95;1.60;;;;;;;;;;4980843;28;20046;-84
2021/05/07 10:30:38;;;;;;;4.57;1.45;;;;;;;;;;4967099;28;20079;-83
2021/05/07 10:33:09;;;;;;;3.03;1.60;;;;;;;;;;4977502;28;20113;-84
2021/05/07 10:35:39;;;;;;;4.72;1.67;;;;;;;;;;4984462;28;20046;-84
2021/05/07 10:38:17;;;;;;;2.65;1.33;;;;;;;;;;4982127;28;20047;-83
2021/05/07 10:41:05;;;;;;;3.33;1.40;;;;;;;;;;4963663;28;20687;-84
2021/05/07 10:43:37;;;;;;;7.50;1.40;;;;;;;;;;4988250;28;20579;-83
2021/05/07 10:46:05;;;;;;;4.15;1.10;;;;;;;;;;4976699;28;20389;-83
2021/05/07 10:48:50;;;;;;;3.85;1.52;;;;;;;;;;4968197;28;20048;-82
2021/05/07 10:51:17;;;;;;;3.72;1.60;;;;;;;;;;4980423;28;20085;-83
2021/05/07 10:53:44;;;;;;;3.95;1.92;;;;;;;;;;4982203;28;20137;-83
2021/05/07 10:56:15;;;;;;;3.15;1.60;;;;;;;;;;4980998;28;20057;-81
2021/05/07 10:58:52;;;;;;;7.88;1.20;;;;;;;;;;4980122;28;20051;-82
2021/05/07 11:01:24;;;;;;;3.58;1.48;;;;;;;;;;4989743;28;20054;-82
2021/05/07 11:04:05;;;;;;;4.15;1.63;;;;;;;;;;4958794;28;20134;-85
2021/05/07 11:06:37;;;;;;;5.75;1.10;;;;;;;;;;4979903;28;20128;-85
2021/05/07 11:09:13;;;;;;;20.20;1.75;;;;;;;;;;4969195;28;20606;-86
2021/05/07 11:11:41;;;;;;;2.85;1.38;;;;;;;;;;4965812;28;20804;-84
2021/05/07 11:14:09;;;;;;;2.38;1.17;;;;;;;;;;4965630;28;20082;-84
2021/05/07 11:16:40;;;;;;;1.95;0.80;;;;;;;;;;4986509;28;20121;-83
2021/05/07 11:19:19;;;;;;;0.75;0.65;;;;;;;;;;4983149;28;20047;-83
2021/05/07 11:21:50;;;;;;;1.48;0.68;;;;;;;;;;4978405;28;20126;-84
2021/05/07 11:24:17;;;;;;;1.35;0.88;;;;;;;;;;4982348;28;20052;-84
2021/05/07 11:26:48;;;;;;;1.00;0.70;;;;;;;;;;4980789;28;20065;-82
2021/05/07 11:29:24;;;;;;;2.60;0.70;;;;;;;;;;4985176;28;20058;-81
2021/05/07 11:32:14;;;;;;;1.80;0.80;;;;;;;;;;4987144;28;20058;-82
2021/05/07 11:35:13;;;;;;;1.80;0.80;;;;;;;;;;4975425;28;20071;-82
2021/05/07 11:37:44;;;;;;;0.98;0.80;;;;;;;;;;4986135;28;20096;-82
2021/05/07 11:40:18;;;;;;;1.20;0.70;;;;;;;;;;4965719;28;20082;-83
2021/05/07 11:42:47;;;;;;;1.17;0.68;;;;;;;;;;4965770;28;20078;-81
2021/05/07 11:45:20;;;;;;;0.95;0.68;;;;;;;;;;4977912;28;20639;-83
2021/05/07 11:47:51;;;;;;;3.13;1.08;;;;;;;;;;4964803;28;20411;-82
2021/05/07 11:50:22;;;;;;;4.20;1.02;;;;;;;;;;4988870;28;20165;-83
2021/05/07 11:52:50;;;;;;;1.60;0.90;;;;;;;;;;4980142;28;20078;-82
2021/05/07 11:55:22;;;;;;;1.08;0.85;;;;;;;;;;4966956;28;20050;-82
2021/05/07 11:58:08;;;;;;;2.33;1.05;;;;;;;;;;4988414;28;20077;-83
2021/05/07 12:00:36;;;;;;;1.88;0.85;;;;;;;;;;4988846;28;20054;-82
2021/05/07 12:03:05;;;;;;;2.13;0.90;;;;;;;;;;4988810;28;20399;-84
2021/05/07 12:05:45;;;;;;;2.03;0.90;;;;;;;;;;4969938;28;20562;-82
2021/05/07 12:08:13;;;;;;;3.30;0.80;;;;;;;;;;4980806;28;20038;-84
2021/05/07 12:10:41;;;;;;;1.73;0.90;;;;;;;;;;4976161;28;20070;-84
2021/05/07 12:13:09;;;;;;;1.50;1.00;;;;;;;;;;4989151;28;20054;-82
2021/05/07 12:15:47;;;;;;;2.03;1.10;;;;;;;;;;4976864;28;20046;-80
2021/05/07 12:18:22;;;;;;;3.78;0.80;;;;;;;;;;4987619;28;20046;-81
2021/05/07 12:20:51;;;;;;;1.77;0.85;;;;;;;;;;4987349;28;20038;-82
2021/05/07 12:23:17;;;;;;;2.90;0.70;;;;;;;;;;4984089;28;20097;-80
2021/05/07 12:25:54;;;;;;;2.53;0.88;;;;;;;;;;4981472;28;20047;-88
2021/05/07 12:28:31;;;;;;;1.48;0.73;;;;;;;;;;4977198;28;20066;-89
2021/05/07 12:30:58;;;;;;;1.33;0.90;;;;;;;;;;4973678;28;20046;-88
2021/05/07 12:33:28;;;;;;;1.98;1.00;;;;;;;;;;4982838;28;20142;-85
2021/05/07 12:35:57;;;;;;;2.50;1.10;;;;;;;;;;4962900;28;20149;-88
2021/05/07 12:38:28;;;;;;;1.50;0.50;;;;;;;;;;4986101;28;20070;-85
2021/05/07 12:41:02;;;;;;;2.72;0.80;;;;;;;;;;4970552;28;20612;-87
2021/05/07 12:43:36;;;;;;;2.30;0.60;;;;;;;;;;4965585;28;20512;-86
2021/05/07 12:46:04;;;;;;;0.98;0.80;;;;;;;;;;4962482;28;20054;-85
2021/05/07 12:48:50;;;;;;;1.33;0.60;;;;;;;;;;4975429;28;20077;-86
2021/05/07 12:58:30;;;;;;;2.60;0.85;;;;;;;;;;4970794;28;20046;-83
2021/05/07 13:00:56;;;;;;;2.33;0.93;;;;;;;;;;4960579;28;20479;-85
2021/05/07 13:03:24;;;;;;;2.28;0.93;;;;;;;;;;4956438;28;20058;-89
2021/05/07 13:05:51;;;;;;;1.75;0.80;;;;;;;;;;4956800;28;20084;-88
2021/05/07 13:08:18;;;;;;;2.30;0.73;;;;;;;;;;4988946;28;20093;-88
2021/05/07 13:10:46;;;;;;;0.85;0.73;;;;;;;;;;4970220;28;20081;-88
2021/05/07 13:13:13;;;;;;;1.33;0.75;;;;;;;;;;4973352;28;20077;-85
2021/05/07 13:15:42;;;;;;;1.80;0.90;;;;;;;;;;4992325;28;20050;-85
2021/05/07 13:18:10;;;;;;;1.15;0.88;;;;;;;;;;4987914;28;20051;-87
2021/05/07 13:20:38;;;;;;;1.55;0.75;;;;;;;;;;4992808;28;20042;-84
2021/05/07 13:23:05;;;;;;;3.15;0.80;;;;;;;;;;4981152;28;20061;-83
2021/05/07 13:25:32;;;;;;;2.55;0.63;;;;;;;;;;4974793;28;20074;-81
2021/05/07 13:28:02;;;;;;;1.30;0.60;;;;;;;;;;4975470;28;20108;-88
2021/05/07 13:30:29;;;;;;;1.08;0.77;;;;;;;;;;4983605;28;20102;-84
2021/05/07 13:32:56;;;;;;;1.15;0.73;;;;;;;;;;4977820;28;20097;-83
2021/05/07 13:35:25;;;;;;;2.88;0.80;;;;;;;;;;4972784;28;20054;-82
2021/05/07 13:37:52;;;;;;;1.40;0.73;;;;;;;;;;4972133;28;20050;-83
2021/05/07 13:40:21;;;;;;;1.42;0.68;;;;;;;;;;4955232;28;20108;-81
2021/05/07 13:42:58;;;;;;;2.03;0.60;;;;;;;;;;4971990;28;20038;-80
2021/05/07 13:45:25;;;;;;;4.05;1.00;;;;;;;;;;4971513;28;20492;-81
2021/05/07 13:47:51;;;;;;;1.80;0.60;;;;;;;;;;4952826;28;20121;-81
2021/05/07 13:50:38;;;;;;;2.53;0.52;;;;;;;;;;4978446;28;20043;-81
2021/05/07 13:53:05;;;;;;;2.25;0.90;;;;;;;;;;4983323;28;20782;-80
2021/05/07 13:55:32;;;;;;;2.63;0.70;;;;;;;;;;4990937;28;20078;-81
2021/05/07 13:57:59;;;;;;;2.95;0.70;;;;;;;;;;4978208;28;20050;-82
2021/05/07 14:00:25;;;;;;;5.07;1.00;;;;;;;;;;4987435;28;20469;-83
2021/05/07 14:02:53;;;;;;;3.40;0.80;;;;;;;;;;4978537;28;20054;-81
2021/05/07 14:05:22;;;;;;;4.20;1.00;;;;;;;;;;4988968;28;20057;-83
2021/05/07 14:07:50;;;;;;;5.53;1.00;;;;;;;;;;4983284;28;20054;-83
2021/05/07 14:10:24;;;;;;;4.57;1.30;;;;;;;;;;4985726;28;20708;-83
2021/05/07 14:12:51;;;;;;;6.10;2.00;;;;;;;;;;4990805;28;20057;-81
2021/05/07 14:15:20;;;;;;;5.10;1.20;;;;;;;;;;4990566;28;20091;-83
2021/05/07 14:17:48;;;;;;;4.07;1.52;;;;;;;;;;4974013;28;20050;-82
2021/05/07 14:20:15;;;;;;;3.83;1.33;;;;;;;;;;4972250;28;20043;-81
2021/05/07 14:22:42;;;;;;;4.63;1.83;;;;;;;;;;4976643;28;20066;-81
2021/05/07 14:25:09;;;;;;;6.18;1.70;;;;;;;;;;4972399;28;20384;-80
2021/05/07 14:27:36;;;;;;;5.75;1.27;;;;;;;;;;5004926;28;20078;-81
2021/05/07 14:30:03;;;;;;;7.13;1.08;;;;;;;;;;4998227;28;20086;-80
2021/05/07 14:32:30;;;;;;;3.08;1.20;;;;;;;;;;4968373;28;20078;-80
2021/05/07 14:34:59;;;;;;;3.80;1.00;;;;;;;;;;4991096;28;20531;-80
2021/05/07 14:37:26;;;;;;;2.97;0.98;;;;;;;;;;4970519;28;20105;-80
2021/05/07 14:39:54;;;;;;;3.75;1.13;;;;;;;;;;4990360;28;20133;-81
2021/05/07 14:42:21;;;;;;;3.88;0.85;;;;;;;;;;4988383;28;20371;-83
2021/05/07 14:44:49;;;;;;;1.73;0.80;;;;;;;;;;4983447;28;20770;-79
2021/05/07 14:47:16;;;;;;;5.97;1.02;;;;;;;;;;4987457;28;20058;-81
2021/05/07 14:49:44;;;;;;;5.53;1.17;;;;;;;;;;4994598;28;20135;-81
2021/05/07 14:52:11;;;;;;;2.50;1.02;;;;;;;;;;5086467;23;20687;-78
2021/05/07 14:57:20;;;;;;;3.90;1.25;;;;;;;;;;4995723;23;20421;-73
2021/05/07 14:59:48;;;;;;;4.32;1.48;;;;;;;;;;4948101;28;20126;-73
2021/05/07 15:02:15;;;;;;;6.03;1.20;;;;;;;;;;4947844;28;20107;-77